sensor_id;sensor_type;location;lat;lon;timestamp;temperature;humidity
23405;DHT22;11875;49.356;2.718;2023-08-31T00:00:33;15.30;99.90
23405;DHT22;11875;49.356;2.718;2023-08-31T00:03:00;15.30;99.90
23405;DHT22;11875;49.356;2.718;2023-08-31T00:05:25;15.30;99.90
23405;DHT22;11875;49.356;2.718;2023-08-31T00:07:54;15.30;99.90
23405;DHT22;11875;49.356;2.718;2023-08-31T00:10:20;15.30;99.90
23405;DHT22;11875;49.356;2.718;2023-08-31T00:12:45;15.30;99.90
23405;DHT22;11875;49.356;2.718;2023-08-31T00:15:11;15.30;99.90
23405;DHT22;11875;49.356;2.718;2023-08-31T00:17:37;15.30;99.90
23405;DHT22;11875;49.356;2.718;2023-08-31T00:20:04;15.20;99.90
23405;DHT22;11875;49.356;2.718;2023-08-31T00:22:32;15.20;99.90
23405;DHT22;11875;49.356;2.718;2023-08-31T00:24:58;15.10;99.90
23405;DHT22;11875;49.356;2.718;2023-08-31T00:27:23;15.00;99.90
23405;DHT22;11875;49.356;2.718;2023-08-31T00:29:49;15.00;99.90
23405;DHT22;11875;49.356;2.718;2023-08-31T00:32:17;15.00;99.90
23405;DHT22;11875;49.356;2.718;2023-08-31T00:34:43;14.80;99.90
23405;DHT22;11875;49.356;2.718;2023-08-31T00:37:09;14.80;99.90
23405;DHT22;11875;49.356;2.718;2023-08-31T00:39:35;14.80;99.90
23405;DHT22;11875;49.356;2.718;2023-08-31T00:42:00;14.80;99.90
23405;DHT22;11875;49.356;2.718;2023-08-31T00:44:26;14.80;99.90
23405;DHT22;11875;49.356;2.718;2023-08-31T00:46:52;14.80;99.90
23405;DHT22;11875;49.356;2.718;2023-08-31T00:49:18;14.80;99.90
23405;DHT22;11875;49.356;2.718;2023-08-31T00:51:45;14.80;99.90
23405;DHT22;11875;49.356;2.718;2023-08-31T00:54:17;14.80;99.90
23405;DHT22;11875;49.356;2.718;2023-08-31T00:56:43;14.80;99.90
23405;DHT22;11875;49.356;2.718;2023-08-31T00:59:08;14.80;99.90
23405;DHT22;11875;49.356;2.718;2023-08-31T01:01:45;14.70;99.90
23405;DHT22;11875;49.356;2.718;2023-08-31T01:09:59;14.70;99.90
23405;DHT22;11875;49.356;2.718;2023-08-31T01:12:34;14.70;99.90
23405;DHT22;11875;49.356;2.718;2023-08-31T01:15:09;14.70;99.90
23405;DHT22;11875;49.356;2.718;2023-08-31T01:17:45;14.70;99.90
23405;DHT22;11875;49.356;2.718;2023-08-31T01:20:37;14.70;99.90
23405;DHT22;11875;49.356;2.718;2023-08-31T01:23:13;14.70;99.90
23405;DHT22;11875;49.356;2.718;2023-08-31T01:25:41;14.60;99.90
23405;DHT22;11875;49.356;2.718;2023-08-31T01:28:10;14.50;99.90
23405;DHT22;11875;49.356;2.718;2023-08-31T01:30:36;14.40;99.90
23405;DHT22;11875;49.356;2.718;2023-08-31T01:33:02;14.30;99.90
23405;DHT22;11875;49.356;2.718;2023-08-31T01:35:31;14.30;99.90
23405;DHT22;11875;49.356;2.718;2023-08-31T01:38:01;14.20;99.90
23405;DHT22;11875;49.356;2.718;2023-08-31T01:40:35;14.20;99.90
23405;DHT22;11875;49.356;2.718;2023-08-31T01:43:02;14.20;99.90
23405;DHT22;11875;49.356;2.718;2023-08-31T01:45:30;14.20;99.90
23405;DHT22;11875;49.356;2.718;2023-08-31T01:47:57;14.20;99.90
23405;DHT22;11875;49.356;2.718;2023-08-31T01:50:23;14.20;99.90
23405;DHT22;11875;49.356;2.718;2023-08-31T01:52:48;14.20;99.90
23405;DHT22;11875;49.356;2.718;2023-08-31T01:55:14;14.10;99.90
23405;DHT22;11875;49.356;2.718;2023-08-31T01:57:41;14.10;99.90
23405;DHT22;11875;49.356;2.718;2023-08-31T02:00:08;14.10;99.90
23405;DHT22;11875;49.356;2.718;2023-08-31T02:02:35;14.10;99.90
23405;DHT22;11875;49.356;2.718;2023-08-31T02:05:01;14.10;99.90
23405;DHT22;11875;49.356;2.718;2023-08-31T02:07:27;14.10;99.90
23405;DHT22;11875;49.356;2.718;2023-08-31T02:09:53;14.10;99.90
23405;DHT22;11875;49.356;2.718;2023-08-31T02:12:20;14.10;99.90
23405;DHT22;11875;49.356;2.718;2023-08-31T02:14:45;14.10;99.90
23405;DHT22;11875;49.356;2.718;2023-08-31T02:17:11;14.10;99.90
23405;DHT22;11875;49.356;2.718;2023-08-31T02:19:36;14.20;99.90
23405;DHT22;11875;49.356;2.718;2023-08-31T02:22:02;14.20;99.90
23405;DHT22;11875;49.356;2.718;2023-08-31T02:24:28;14.30;99.90
23405;DHT22;11875;49.356;2.718;2023-08-31T02:26:53;14.30;99.90
23405;DHT22;11875;49.356;2.718;2023-08-31T02:29:19;14.30;99.90
23405;DHT22;11875;49.356;2.718;2023-08-31T02:31:45;14.20;99.90
23405;DHT22;11875;49.356;2.718;2023-08-31T02:34:10;14.10;99.90
23405;DHT22;11875;49.356;2.718;2023-08-31T02:36:36;14.10;99.90
23405;DHT22;11875;49.356;2.718;2023-08-31T02:39:02;14.20;99.90
23405;DHT22;11875;49.356;2.718;2023-08-31T02:41:29;14.10;99.90
23405;DHT22;11875;49.356;2.718;2023-08-31T02:43:55;14.10;99.90
23405;DHT22;11875;49.356;2.718;2023-08-31T02:46:20;14.10;99.90
23405;DHT22;11875;49.356;2.718;2023-08-31T02:48:46;14.10;99.90
23405;DHT22;11875;49.356;2.718;2023-08-31T02:51:13;14.10;99.90
23405;DHT22;11875;49.356;2.718;2023-08-31T02:53:38;14.10;99.90
23405;DHT22;11875;49.356;2.718;2023-08-31T02:56:04;14.10;99.90
23405;DHT22;11875;49.356;2.718;2023-08-31T02:58:29;14.10;99.90
23405;DHT22;11875;49.356;2.718;2023-08-31T03:00:55;14.10;99.90
23405;DHT22;11875;49.356;2.718;2023-08-31T03:03:21;14.10;99.90
23405;DHT22;11875;49.356;2.718;2023-08-31T03:05:47;14.10;99.90
23405;DHT22;11875;49.356;2.718;2023-08-31T03:08:13;14.10;99.90
23405;DHT22;11875;49.356;2.718;2023-08-31T03:10:39;14.10;99.90
23405;DHT22;11875;49.356;2.718;2023-08-31T03:13:05;14.10;99.90
23405;DHT22;11875;49.356;2.718;2023-08-31T03:15:32;14.10;99.90
23405;DHT22;11875;49.356;2.718;2023-08-31T03:17:59;14.10;99.90
23405;DHT22;11875;49.356;2.718;2023-08-31T03:20:25;14.00;99.90
23405;DHT22;11875;49.356;2.718;2023-08-31T03:22:51;14.00;99.90
23405;DHT22;11875;49.356;2.718;2023-08-31T03:25:16;14.00;99.90
23405;DHT22;11875;49.356;2.718;2023-08-31T03:27:42;14.00;99.90
23405;DHT22;11875;49.356;2.718;2023-08-31T03:30:08;14.10;99.90
23405;DHT22;11875;49.356;2.718;2023-08-31T03:32:34;14.10;99.90
23405;DHT22;11875;49.356;2.718;2023-08-31T03:35:02;14.10;99.90
23405;DHT22;11875;49.356;2.718;2023-08-31T03:37:28;14.10;99.90
23405;DHT22;11875;49.356;2.718;2023-08-31T03:39:54;14.10;99.90
23405;DHT22;11875;49.356;2.718;2023-08-31T03:42:20;14.10;99.90
23405;DHT22;11875;49.356;2.718;2023-08-31T03:44:45;14.10;99.90
23405;DHT22;11875;49.356;2.718;2023-08-31T03:47:11;14.00;99.90
23405;DHT22;11875;49.356;2.718;2023-08-31T03:49:36;14.10;99.90
23405;DHT22;11875;49.356;2.718;2023-08-31T03:52:02;14.10;99.90
23405;DHT22;11875;49.356;2.718;2023-08-31T03:54:28;14.20;99.90
23405;DHT22;11875;49.356;2.718;2023-08-31T03:56:53;14.10;99.90
23405;DHT22;11875;49.356;2.718;2023-08-31T03:59:19;14.10;99.90
23405;DHT22;11875;49.356;2.718;2023-08-31T04:01:44;14.10;99.90
23405;DHT22;11875;49.356;2.718;2023-08-31T04:04:10;14.00;99.90
23405;DHT22;11875;49.356;2.718;2023-08-31T04:06:36;14.00;99.90
23405;DHT22;11875;49.356;2.718;2023-08-31T04:09:01;14.00;99.90
23405;DHT22;11875;49.356;2.718;2023-08-31T04:11:27;14.00;99.90
23405;DHT22;11875;49.356;2.718;2023-08-31T04:13:52;14.00;99.90
23405;DHT22;11875;49.356;2.718;2023-08-31T04:16:18;14.00;99.90
23405;DHT22;11875;49.356;2.718;2023-08-31T04:18:44;14.10;99.90
23405;DHT22;11875;49.356;2.718;2023-08-31T04:21:13;14.10;99.90
23405;DHT22;11875;49.356;2.718;2023-08-31T04:23:38;14.10;99.90
23405;DHT22;11875;49.356;2.718;2023-08-31T04:26:13;14.10;99.90
23405;DHT22;11875;49.356;2.718;2023-08-31T04:28:40;14.00;99.90
23405;DHT22;11875;49.356;2.718;2023-08-31T04:31:06;14.10;99.90
23405;DHT22;11875;49.356;2.718;2023-08-31T04:33:37;14.10;99.90
23405;DHT22;11875;49.356;2.718;2023-08-31T04:36:03;14.10;99.90
23405;DHT22;11875;49.356;2.718;2023-08-31T04:38:37;14.10;99.90
23405;DHT22;11875;49.356;2.718;2023-08-31T04:41:03;14.00;99.90
23405;DHT22;11875;49.356;2.718;2023-08-31T04:43:29;13.90;99.90
23405;DHT22;11875;49.356;2.718;2023-08-31T04:45:55;13.90;99.90
23405;DHT22;11875;49.356;2.718;2023-08-31T04:48:21;13.90;99.90
23405;DHT22;11875;49.356;2.718;2023-08-31T04:50:47;13.90;99.90
23405;DHT22;11875;49.356;2.718;2023-08-31T04:53:13;14.00;99.90
23405;DHT22;11875;49.356;2.718;2023-08-31T04:55:39;14.00;99.90
23405;DHT22;11875;49.356;2.718;2023-08-31T04:58:04;14.00;99.90
23405;DHT22;11875;49.356;2.718;2023-08-31T05:00:30;14.10;99.90
23405;DHT22;11875;49.356;2.718;2023-08-31T05:02:56;14.10;99.90
23405;DHT22;11875;49.356;2.718;2023-08-31T05:05:22;14.10;99.90
23405;DHT22;11875;49.356;2.718;2023-08-31T05:07:48;14.10;99.90
23405;DHT22;11875;49.356;2.718;2023-08-31T05:10:13;14.20;99.90
23405;DHT22;11875;49.356;2.718;2023-08-31T05:12:39;14.20;99.90
23405;DHT22;11875;49.356;2.718;2023-08-31T05:15:05;14.30;99.90
23405;DHT22;11875;49.356;2.718;2023-08-31T05:17:31;14.30;99.90
23405;DHT22;11875;49.356;2.718;2023-08-31T05:19:57;14.40;99.90
23405;DHT22;11875;49.356;2.718;2023-08-31T05:22:22;14.40;99.90
23405;DHT22;11875;49.356;2.718;2023-08-31T05:24:48;14.40;99.90
23405;DHT22;11875;49.356;2.718;2023-08-31T05:27:14;14.40;99.90
23405;DHT22;11875;49.356;2.718;2023-08-31T05:29:39;13.30;99.90
23405;DHT22;11875;49.356;2.718;2023-08-31T05:32:06;14.40;99.90
23405;DHT22;11875;49.356;2.718;2023-08-31T05:34:32;14.50;99.90
23405;DHT22;11875;49.356;2.718;2023-08-31T05:37:03;14.40;99.90
23405;DHT22;11875;49.356;2.718;2023-08-31T05:39:30;14.40;99.90
23405;DHT22;11875;49.356;2.718;2023-08-31T05:41:55;14.40;99.90
23405;DHT22;11875;49.356;2.718;2023-08-31T05:44:22;14.30;99.90
23405;DHT22;11875;49.356;2.718;2023-08-31T05:46:47;14.30;99.90
23405;DHT22;11875;49.356;2.718;2023-08-31T05:49:13;14.40;99.90
23405;DHT22;11875;49.356;2.718;2023-08-31T05:51:39;14.40;99.90
23405;DHT22;11875;49.356;2.718;2023-08-31T05:54:04;14.50;99.90
23405;DHT22;11875;49.356;2.718;2023-08-31T05:56:31;14.50;99.90
23405;DHT22;11875;49.356;2.718;2023-08-31T05:58:56;14.60;99.90
23405;DHT22;11875;49.356;2.718;2023-08-31T06:01:22;14.60;99.90
23405;DHT22;11875;49.356;2.718;2023-08-31T06:03:48;14.60;99.90
23405;DHT22;11875;49.356;2.718;2023-08-31T06:06:14;14.50;99.90
23405;DHT22;11875;49.356;2.718;2023-08-31T06:08:39;14.60;99.90
23405;DHT22;11875;49.356;2.718;2023-08-31T06:11:05;14.70;99.90
23405;DHT22;11875;49.356;2.718;2023-08-31T06:13:31;14.80;99.90
23405;DHT22;11875;49.356;2.718;2023-08-31T06:15:57;14.80;99.90
23405;DHT22;11875;49.356;2.718;2023-08-31T06:18:23;14.80;99.90
23405;DHT22;11875;49.356;2.718;2023-08-31T06:20:49;15.00;99.90
23405;DHT22;11875;49.356;2.718;2023-08-31T06:23:15;15.00;99.90
23405;DHT22;11875;49.356;2.718;2023-08-31T06:25:40;15.10;99.90
23405;DHT22;11875;49.356;2.718;2023-08-31T06:28:06;15.10;99.90
23405;DHT22;11875;49.356;2.718;2023-08-31T06:30:34;15.10;99.90
23405;DHT22;11875;49.356;2.718;2023-08-31T06:33:00;15.10;99.90
23405;DHT22;11875;49.356;2.718;2023-08-31T06:35:26;15.10;99.90
23405;DHT22;11875;49.356;2.718;2023-08-31T06:37:51;15.10;99.90
23405;DHT22;11875;49.356;2.718;2023-08-31T06:40:17;15.20;99.90
23405;DHT22;11875;49.356;2.718;2023-08-31T06:42:43;15.30;99.90
23405;DHT22;11875;49.356;2.718;2023-08-31T06:45:09;15.40;99.90
23405;DHT22;11875;49.356;2.718;2023-08-31T06:47:34;15.50;99.90
23405;DHT22;11875;49.356;2.718;2023-08-31T06:50:00;15.50;99.90
23405;DHT22;11875;49.356;2.718;2023-08-31T06:52:26;15.40;99.90
23405;DHT22;11875;49.356;2.718;2023-08-31T06:54:52;15.50;99.90
23405;DHT22;11875;49.356;2.718;2023-08-31T06:57:22;15.60;99.90
23405;DHT22;11875;49.356;2.718;2023-08-31T06:59:48;15.70;99.90
23405;DHT22;11875;49.356;2.718;2023-08-31T07:02:14;15.80;99.90
23405;DHT22;11875;49.356;2.718;2023-08-31T07:04:40;15.80;99.90
23405;DHT22;11875;49.356;2.718;2023-08-31T07:07:06;15.90;99.90
23405;DHT22;11875;49.356;2.718;2023-08-31T07:09:31;15.90;99.90
23405;DHT22;11875;49.356;2.718;2023-08-31T07:11:57;15.90;99.90
23405;DHT22;11875;49.356;2.718;2023-08-31T07:14:23;16.00;99.90
23405;DHT22;11875;49.356;2.718;2023-08-31T07:16:49;16.00;99.90
23405;DHT22;11875;49.356;2.718;2023-08-31T07:19:15;16.10;99.90
23405;DHT22;11875;49.356;2.718;2023-08-31T07:21:41;16.20;99.90
23405;DHT22;11875;49.356;2.718;2023-08-31T07:24:07;16.20;99.90
23405;DHT22;11875;49.356;2.718;2023-08-31T07:26:32;16.30;99.90
23405;DHT22;11875;49.356;2.718;2023-08-31T07:29:00;16.40;99.90
23405;DHT22;11875;49.356;2.718;2023-08-31T07:31:27;16.40;99.90
23405;DHT22;11875;49.356;2.718;2023-08-31T07:33:52;16.40;99.90
23405;DHT22;11875;49.356;2.718;2023-08-31T07:36:18;16.40;99.90
23405;DHT22;11875;49.356;2.718;2023-08-31T07:38:43;16.40;99.90
23405;DHT22;11875;49.356;2.718;2023-08-31T07:41:09;16.40;99.90
23405;DHT22;11875;49.356;2.718;2023-08-31T07:43:35;16.30;99.90
23405;DHT22;11875;49.356;2.718;2023-08-31T07:46:00;16.30;99.90
23405;DHT22;11875;49.356;2.718;2023-08-31T07:48:26;16.40;99.90
23405;DHT22;11875;49.356;2.718;2023-08-31T07:50:51;16.50;99.90
23405;DHT22;11875;49.356;2.718;2023-08-31T07:53:17;16.60;99.90
23405;DHT22;11875;49.356;2.718;2023-08-31T07:55:53;16.60;99.90
23405;DHT22;11875;49.356;2.718;2023-08-31T07:58:20;16.60;99.90
23405;DHT22;11875;49.356;2.718;2023-08-31T08:00:46;16.60;99.90
23405;DHT22;11875;49.356;2.718;2023-08-31T08:03:12;16.70;99.90
23405;DHT22;11875;49.356;2.718;2023-08-31T08:05:39;16.80;99.90
23405;DHT22;11875;49.356;2.718;2023-08-31T08:08:05;17.10;99.90
23405;DHT22;11875;49.356;2.718;2023-08-31T08:10:30;17.40;99.90
23405;DHT22;11875;49.356;2.718;2023-08-31T08:12:56;17.50;99.90
23405;DHT22;11875;49.356;2.718;2023-08-31T08:15:22;17.60;99.90
23405;DHT22;11875;49.356;2.718;2023-08-31T08:17:47;17.80;99.90
23405;DHT22;11875;49.356;2.718;2023-08-31T08:20:13;18.10;99.90
23405;DHT22;11875;49.356;2.718;2023-08-31T08:22:39;18.30;99.90
23405;DHT22;11875;49.356;2.718;2023-08-31T08:25:05;18.40;99.90
23405;DHT22;11875;49.356;2.718;2023-08-31T08:27:31;18.50;99.90
23405;DHT22;11875;49.356;2.718;2023-08-31T08:29:59;18.60;99.90
23405;DHT22;11875;49.356;2.718;2023-08-31T08:32:24;18.60;99.90
23405;DHT22;11875;49.356;2.718;2023-08-31T08:34:50;18.60;99.90
23405;DHT22;11875;49.356;2.718;2023-08-31T08:37:16;18.50;99.90
23405;DHT22;11875;49.356;2.718;2023-08-31T08:39:42;18.50;99.90
23405;DHT22;11875;49.356;2.718;2023-08-31T08:42:10;18.50;99.90
23405;DHT22;11875;49.356;2.718;2023-08-31T08:44:36;18.50;99.90
23405;DHT22;11875;49.356;2.718;2023-08-31T08:47:02;18.60;99.90
23405;DHT22;11875;49.356;2.718;2023-08-31T08:49:30;18.60;99.90
23405;DHT22;11875;49.356;2.718;2023-08-31T08:51:56;18.70;99.90
23405;DHT22;11875;49.356;2.718;2023-08-31T08:54:22;18.70;99.90
23405;DHT22;11875;49.356;2.718;2023-08-31T08:56:48;18.90;99.90
23405;DHT22;11875;49.356;2.718;2023-08-31T08:59:14;19.00;99.90
23405;DHT22;11875;49.356;2.718;2023-08-31T09:01:40;19.00;99.90
23405;DHT22;11875;49.356;2.718;2023-08-31T09:04:06;19.10;99.90
23405;DHT22;11875;49.356;2.718;2023-08-31T09:06:32;19.20;99.90
23405;DHT22;11875;49.356;2.718;2023-08-31T09:08:58;19.20;99.90
23405;DHT22;11875;49.356;2.718;2023-08-31T09:11:24;19.20;99.90
23405;DHT22;11875;49.356;2.718;2023-08-31T09:13:51;19.30;99.90
23405;DHT22;11875;49.356;2.718;2023-08-31T09:16:27;19.40;99.90
23405;DHT22;11875;49.356;2.718;2023-08-31T09:18:54;19.40;99.90
23405;DHT22;11875;49.356;2.718;2023-08-31T09:21:20;19.50;99.90
23405;DHT22;11875;49.356;2.718;2023-08-31T09:23:59;19.60;99.90
23405;DHT22;11875;49.356;2.718;2023-08-31T09:26:24;19.60;99.90
23405;DHT22;11875;49.356;2.718;2023-08-31T09:28:50;19.50;99.90
23405;DHT22;11875;49.356;2.718;2023-08-31T09:31:17;19.50;99.90
23405;DHT22;11875;49.356;2.718;2023-08-31T09:33:52;19.60;99.90
23405;DHT22;11875;49.356;2.718;2023-08-31T09:36:19;19.50;99.90
23405;DHT22;11875;49.356;2.718;2023-08-31T09:38:45;19.60;99.90
23405;DHT22;11875;49.356;2.718;2023-08-31T09:41:11;19.50;99.90
23405;DHT22;11875;49.356;2.718;2023-08-31T09:43:37;19.60;99.90
23405;DHT22;11875;49.356;2.718;2023-08-31T09:46:04;19.60;99.90
23405;DHT22;11875;49.356;2.718;2023-08-31T09:48:30;19.60;99.90
23405;DHT22;11875;49.356;2.718;2023-08-31T09:50:56;19.70;99.90
23405;DHT22;11875;49.356;2.718;2023-08-31T09:53:26;19.70;99.90
23405;DHT22;11875;49.356;2.718;2023-08-31T09:55:54;19.80;99.90
23405;DHT22;11875;49.356;2.718;2023-08-31T09:58:22;19.80;99.90
23405;DHT22;11875;49.356;2.718;2023-08-31T10:00:51;19.80;99.90
23405;DHT22;11875;49.356;2.718;2023-08-31T10:03:18;19.90;99.90
23405;DHT22;11875;49.356;2.718;2023-08-31T10:05:47;19.90;99.90
23405;DHT22;11875;49.356;2.718;2023-08-31T10:08:14;19.90;99.90
23405;DHT22;11875;49.356;2.718;2023-08-31T10:10:40;20.10;99.90
23405;DHT22;11875;49.356;2.718;2023-08-31T10:13:06;20.20;99.90
23405;DHT22;11875;49.356;2.718;2023-08-31T10:15:33;20.20;99.90
23405;DHT22;11875;49.356;2.718;2023-08-31T10:18:04;20.30;99.90
23405;DHT22;11875;49.356;2.718;2023-08-31T10:20:30;20.40;99.90
23405;DHT22;11875;49.356;2.718;2023-08-31T10:23:08;20.60;99.90
23405;DHT22;11875;49.356;2.718;2023-08-31T10:28:18;20.60;99.90
23405;DHT22;11875;49.356;2.718;2023-08-31T10:31:03;20.60;99.90
23405;DHT22;11875;49.356;2.718;2023-08-31T10:36:19;20.40;99.90
23405;DHT22;11875;49.356;2.718;2023-08-31T10:43:50;20.20;99.90
23405;DHT22;11875;49.356;2.718;2023-08-31T10:46:26;20.30;99.90
23405;DHT22;11875;49.356;2.718;2023-08-31T10:49:01;20.30;99.90
23405;DHT22;11875;49.356;2.718;2023-08-31T10:51:40;20.30;99.90
23405;DHT22;11875;49.356;2.718;2023-08-31T10:56:32;20.40;99.90
23405;DHT22;11875;49.356;2.718;2023-08-31T10:58:59;20.50;99.90
23405;DHT22;11875;49.356;2.718;2023-08-31T11:01:54;20.50;99.90
23405;DHT22;11875;49.356;2.718;2023-08-31T11:04:21;20.60;99.90
23405;DHT22;11875;49.356;2.718;2023-08-31T11:06:47;20.70;99.90
23405;DHT22;11875;49.356;2.718;2023-08-31T11:09:20;20.80;99.90
23405;DHT22;11875;49.356;2.718;2023-08-31T11:11:46;20.90;99.90
23405;DHT22;11875;49.356;2.718;2023-08-31T11:14:13;20.80;99.90
23405;DHT22;11875;49.356;2.718;2023-08-31T11:16:39;20.90;99.90
23405;DHT22;11875;49.356;2.718;2023-08-31T11:19:05;20.80;99.90
23405;DHT22;11875;49.356;2.718;2023-08-31T11:21:31;20.70;99.90
23405;DHT22;11875;49.356;2.718;2023-08-31T11:23:58;20.70;99.90
23405;DHT22;11875;49.356;2.718;2023-08-31T11:26:25;20.60;99.90
23405;DHT22;11875;49.356;2.718;2023-08-31T11:28:51;20.70;99.90
23405;DHT22;11875;49.356;2.718;2023-08-31T11:31:26;20.70;99.90
23405;DHT22;11875;49.356;2.718;2023-08-31T11:33:54;20.00;99.90
23405;DHT22;11875;49.356;2.718;2023-08-31T11:36:20;20.80;99.90
23405;DHT22;11875;49.356;2.718;2023-08-31T11:38:48;20.90;99.90
23405;DHT22;11875;49.356;2.718;2023-08-31T11:41:14;20.90;99.90
23405;DHT22;11875;49.356;2.718;2023-08-31T11:43:39;21.10;99.90
23405;DHT22;11875;49.356;2.718;2023-08-31T11:46:05;21.10;99.90
23405;DHT22;11875;49.356;2.718;2023-08-31T11:48:32;21.10;99.90
23405;DHT22;11875;49.356;2.718;2023-08-31T11:50:58;21.10;99.90
23405;DHT22;11875;49.356;2.718;2023-08-31T11:53:24;21.00;99.90
23405;DHT22;11875;49.356;2.718;2023-08-31T11:55:50;21.00;99.90
23405;DHT22;11875;49.356;2.718;2023-08-31T11:58:17;21.00;99.90
23405;DHT22;11875;49.356;2.718;2023-08-31T12:00:43;20.90;99.90
23405;DHT22;11875;49.356;2.718;2023-08-31T12:03:09;20.90;99.90
23405;DHT22;11875;49.356;2.718;2023-08-31T12:05:45;20.80;99.90
23405;DHT22;11875;49.356;2.718;2023-08-31T12:08:11;20.50;99.90
23405;DHT22;11875;49.356;2.718;2023-08-31T12:10:40;20.30;99.90
23405;DHT22;11875;49.356;2.718;2023-08-31T12:13:09;20.40;99.90
23405;DHT22;11875;49.356;2.718;2023-08-31T12:15:35;20.50;99.90
23405;DHT22;11875;49.356;2.718;2023-08-31T12:18:11;20.70;99.90
23405;DHT22;11875;49.356;2.718;2023-08-31T12:20:49;20.70;99.90
23405;DHT22;11875;49.356;2.718;2023-08-31T12:23:16;20.70;99.90
23405;DHT22;11875;49.356;2.718;2023-08-31T12:26:01;20.60;99.90
23405;DHT22;11875;49.356;2.718;2023-08-31T12:28:28;20.50;99.90
23405;DHT22;11875;49.356;2.718;2023-08-31T12:30:54;20.50;99.90
23405;DHT22;11875;49.356;2.718;2023-08-31T12:33:22;20.40;99.90
23405;DHT22;11875;49.356;2.718;2023-08-31T12:35:48;20.20;99.90
23405;DHT22;11875;49.356;2.718;2023-08-31T12:38:14;20.10;99.90
23405;DHT22;11875;49.356;2.718;2023-08-31T12:40:39;20.00;99.90
23405;DHT22;11875;49.356;2.718;2023-08-31T12:43:06;20.00;99.90
23405;DHT22;11875;49.356;2.718;2023-08-31T12:45:32;19.90;99.90
23405;DHT22;11875;49.356;2.718;2023-08-31T12:47:58;18.80;99.90
23405;DHT22;11875;49.356;2.718;2023-08-31T12:50:24;19.60;99.90
23405;DHT22;11875;49.356;2.718;2023-08-31T12:52:49;19.40;99.90
23405;DHT22;11875;49.356;2.718;2023-08-31T12:55:15;19.30;99.90
23405;DHT22;11875;49.356;2.718;2023-08-31T12:57:42;19.30;99.90
23405;DHT22;11875;49.356;2.718;2023-08-31T13:00:09;19.30;99.90
23405;DHT22;11875;49.356;2.718;2023-08-31T13:02:38;19.20;99.90
23405;DHT22;11875;49.356;2.718;2023-08-31T13:05:04;19.20;99.90
23405;DHT22;11875;49.356;2.718;2023-08-31T13:07:31;19.20;99.90
23405;DHT22;11875;49.356;2.718;2023-08-31T13:09:59;19.30;99.90
23405;DHT22;11875;49.356;2.718;2023-08-31T13:12:25;19.20;99.90
23405;DHT22;11875;49.356;2.718;2023-08-31T13:14:51;18.90;99.90
23405;DHT22;11875;49.356;2.718;2023-08-31T13:17:16;18.80;99.90
23405;DHT22;11875;49.356;2.718;2023-08-31T13:19:42;18.60;99.90
23405;DHT22;11875;49.356;2.718;2023-08-31T13:22:08;18.40;99.90
23405;DHT22;11875;49.356;2.718;2023-08-31T13:24:33;18.40;99.90
23405;DHT22;11875;49.356;2.718;2023-08-31T13:26:59;18.40;99.90
23405;DHT22;11875;49.356;2.718;2023-08-31T13:29:25;18.40;99.90
23405;DHT22;11875;49.356;2.718;2023-08-31T13:31:50;18.40;99.90
23405;DHT22;11875;49.356;2.718;2023-08-31T13:34:16;18.30;99.90
23405;DHT22;11875;49.356;2.718;2023-08-31T13:36:41;18.40;99.90
23405;DHT22;11875;49.356;2.718;2023-08-31T13:39:08;18.40;99.90
23405;DHT22;11875;49.356;2.718;2023-08-31T13:41:33;18.30;99.90
23405;DHT22;11875;49.356;2.718;2023-08-31T13:43:59;18.30;99.90
23405;DHT22;11875;49.356;2.718;2023-08-31T13:46:25;18.00;99.90
23405;DHT22;11875;49.356;2.718;2023-08-31T13:48:50;17.90;99.90
23405;DHT22;11875;49.356;2.718;2023-08-31T13:51:16;17.90;99.90
23405;DHT22;11875;49.356;2.718;2023-08-31T13:53:41;17.90;99.90
23405;DHT22;11875;49.356;2.718;2023-08-31T13:56:07;17.80;99.90
23405;DHT22;11875;49.356;2.718;2023-08-31T13:58:33;17.80;99.90
23405;DHT22;11875;49.356;2.718;2023-08-31T14:01:01;17.80;99.90
23405;DHT22;11875;49.356;2.718;2023-08-31T14:03:29;17.70;99.90
23405;DHT22;11875;49.356;2.718;2023-08-31T14:05:54;17.70;99.90
23405;DHT22;11875;49.356;2.718;2023-08-31T14:08:20;17.50;99.90
23405;DHT22;11875;49.356;2.718;2023-08-31T14:10:45;17.40;99.90
23405;DHT22;11875;49.356;2.718;2023-08-31T14:13:11;17.40;99.90
23405;DHT22;11875;49.356;2.718;2023-08-31T14:15:37;17.30;99.90
23405;DHT22;11875;49.356;2.718;2023-08-31T14:18:09;17.30;99.90
23405;DHT22;11875;49.356;2.718;2023-08-31T14:20:35;17.40;99.90
23405;DHT22;11875;49.356;2.718;2023-08-31T14:23:00;17.40;99.90
23405;DHT22;11875;49.356;2.718;2023-08-31T14:25:26;17.30;99.90
23405;DHT22;11875;49.356;2.718;2023-08-31T14:27:51;17.40;99.90
23405;DHT22;11875;49.356;2.718;2023-08-31T14:30:17;17.30;99.90
23405;DHT22;11875;49.356;2.718;2023-08-31T14:32:43;17.20;99.90
23405;DHT22;11875;49.356;2.718;2023-08-31T14:35:08;17.30;99.90
23405;DHT22;11875;49.356;2.718;2023-08-31T14:37:34;17.30;99.90
23405;DHT22;11875;49.356;2.718;2023-08-31T14:40:00;17.50;99.90
23405;DHT22;11875;49.356;2.718;2023-08-31T14:42:25;17.40;99.90
23405;DHT22;11875;49.356;2.718;2023-08-31T14:44:51;17.50;99.90
23405;DHT22;11875;49.356;2.718;2023-08-31T14:47:17;17.60;99.90
23405;DHT22;11875;49.356;2.718;2023-08-31T14:49:42;17.60;99.90
23405;DHT22;11875;49.356;2.718;2023-08-31T14:52:08;17.50;99.90
23405;DHT22;11875;49.356;2.718;2023-08-31T14:54:34;17.50;99.90
23405;DHT22;11875;49.356;2.718;2023-08-31T14:57:00;17.50;99.90
23405;DHT22;11875;49.356;2.718;2023-08-31T14:59:25;17.50;99.90
23405;DHT22;11875;49.356;2.718;2023-08-31T15:01:51;17.60;99.90
23405;DHT22;11875;49.356;2.718;2023-08-31T15:04:17;17.60;99.90
23405;DHT22;11875;49.356;2.718;2023-08-31T15:06:43;17.50;99.90
23405;DHT22;11875;49.356;2.718;2023-08-31T15:09:08;17.60;99.90
23405;DHT22;11875;49.356;2.718;2023-08-31T15:11:34;17.60;99.90
23405;DHT22;11875;49.356;2.718;2023-08-31T15:14:00;17.60;99.90
23405;DHT22;11875;49.356;2.718;2023-08-31T15:16:26;17.50;99.90
23405;DHT22;11875;49.356;2.718;2023-08-31T15:18:53;17.40;99.90
23405;DHT22;11875;49.356;2.718;2023-08-31T15:21:19;17.30;99.90
23405;DHT22;11875;49.356;2.718;2023-08-31T15:23:45;17.30;99.90
23405;DHT22;11875;49.356;2.718;2023-08-31T15:26:11;17.30;99.90
23405;DHT22;11875;49.356;2.718;2023-08-31T15:28:38;17.20;99.90
23405;DHT22;11875;49.356;2.718;2023-08-31T15:31:04;17.20;99.90
23405;DHT22;11875;49.356;2.718;2023-08-31T15:33:30;17.20;99.90
23405;DHT22;11875;49.356;2.718;2023-08-31T15:36:03;17.30;99.90
23405;DHT22;11875;49.356;2.718;2023-08-31T15:38:30;17.40;99.90
23405;DHT22;11875;49.356;2.718;2023-08-31T15:40:56;17.40;99.90
23405;DHT22;11875;49.356;2.718;2023-08-31T15:43:22;17.50;99.90
23405;DHT22;11875;49.356;2.718;2023-08-31T15:45:47;17.50;99.90